createdAt,value
2022-08-11T00:02:01.153Z,23.65
2022-08-11T00:04:37.244Z,23.68
2022-08-11T00:07:06.899Z,23.69
2022-08-11T00:09:39.022Z,23.72
2022-08-11T00:12:16.205Z,23.68
2022-08-11T00:14:44.588Z,23.61
2022-08-11T00:17:16.111Z,23.60
2022-08-11T00:20:13.344Z,23.56
2022-08-11T00:22:41.836Z,23.51
2022-08-11T00:25:13.982Z,23.48
2022-08-11T00:27:43.040Z,23.47
2022-08-11T00:30:13.584Z,23.49
2022-08-11T00:32:55.018Z,23.44
2022-08-11T00:35:51.209Z,23.42
2022-08-11T00:38:18.972Z,23.43
2022-08-11T00:41:08.690Z,23.44
2022-08-11T00:44:01.977Z,23.46
2022-08-11T00:46:57.567Z,23.49
2022-08-11T00:49:46.802Z,23.46
2022-08-11T00:52:53.655Z,23.48
2022-08-11T00:56:01.373Z,23.43
2022-08-11T00:58:56.534Z,23.40
2022-08-11T01:01:37.795Z,23.41
2022-08-11T01:04:45.316Z,23.43
2022-08-11T01:08:01.953Z,23.40
2022-08-11T01:10:49.851Z,23.27
2022-08-11T01:33:38.986Z,22.74
2022-08-11T01:36:36.301Z,22.76
2022-08-11T01:39:59.293Z,22.81
2022-08-11T01:42:51.215Z,22.82
2022-08-11T01:45:57.938Z,22.79
2022-08-11T01:48:53.797Z,22.82
2022-08-11T01:51:36.526Z,22.73
2022-08-11T01:54:11.061Z,22.73
2022-08-11T01:57:31.772Z,22.75
2022-08-11T02:00:12.298Z,22.70
2022-08-11T02:03:04.498Z,22.67
2022-08-11T02:06:34.868Z,22.65
2022-08-11T02:09:35.210Z,22.63
2022-08-11T02:12:52.810Z,22.57
2022-08-11T02:15:39.358Z,22.56
2022-08-11T02:18:22.020Z,22.60
2022-08-11T02:21:25.646Z,22.63
2022-08-11T02:24:04.878Z,22.64
2022-08-11T02:27:23.098Z,22.64
2022-08-11T02:30:07.641Z,22.57
2022-08-11T02:33:24.687Z,22.49
2022-08-11T02:36:19.747Z,22.40
2022-08-11T02:39:01.983Z,22.32
2022-08-11T02:42:31.997Z,22.16
2022-08-11T02:45:12.279Z,22.13
2022-08-11T02:48:16.310Z,22.11
2022-08-11T02:51:22.364Z,22.03
2022-08-11T02:54:16.905Z,22.01
2022-08-11T02:56:59.829Z,22.06
2022-08-11T02:59:59.392Z,22.09
2022-08-11T03:02:49.788Z,22.15
2022-08-11T03:05:42.898Z,22.20
2022-08-11T03:08:32.319Z,22.20
2022-08-11T03:11:26.571Z,22.19
2022-08-11T03:14:23.794Z,22.20
2022-08-11T03:17:05.957Z,22.17
2022-08-11T03:19:57.225Z,22.16
2022-08-11T03:22:49.394Z,22.15
2022-08-11T03:25:55.023Z,22.15
2022-08-11T03:28:47.259Z,22.20
2022-08-11T03:32:00.637Z,22.20
2022-08-11T03:34:31.895Z,22.22
2022-08-11T03:37:39.268Z,22.24
2022-08-11T03:40:54.885Z,22.19
2022-08-11T03:43:39.041Z,22.12
2022-08-11T03:46:40.221Z,22.12
2022-08-11T03:49:25.601Z,22.10
2022-08-11T03:52:27.458Z,22.06
2022-08-11T03:55:07.567Z,22.04
2022-08-11T03:57:59.335Z,22.06
2022-08-11T04:00:58.250Z,22.07
2022-08-11T04:04:18.734Z,22.04
2022-08-11T04:07:12.083Z,22.01
2022-08-11T04:10:17.694Z,21.99
2022-08-11T04:13:06.398Z,22.00
2022-08-11T04:16:11.907Z,22.00
2022-08-11T04:19:30.014Z,21.97
2022-08-11T04:22:21.233Z,21.78
2022-08-11T04:25:33.232Z,21.72
2022-08-11T04:28:50.139Z,21.66
2022-08-11T04:31:50.397Z,21.70
2022-08-11T04:34:45.159Z,21.75
2022-08-11T04:38:06.788Z,21.78
2022-08-11T04:41:17.211Z,21.91
2022-08-11T04:44:31.991Z,21.77
2022-08-11T04:48:04.341Z,21.57
2022-08-11T04:51:34.537Z,21.63
2022-08-11T04:54:50.283Z,21.80
2022-08-11T04:58:08.061Z,21.91
2022-08-11T05:01:37.175Z,22.01
2022-08-11T05:05:31.050Z,22.15
2022-08-11T05:08:18.515Z,22.26
2022-08-11T05:10:58.095Z,22.13
2022-08-11T05:13:55.014Z,21.95
2022-08-11T05:16:51.193Z,21.89
2022-08-11T05:19:40.366Z,21.93
2022-08-11T05:22:31.435Z,22.03
2022-08-11T05:26:45.382Z,22.15
2022-08-11T05:28:55.591Z,22.17
2022-08-11T05:31:54.888Z,22.20
2022-08-11T05:34:50.992Z,22.26
2022-08-11T05:37:30.663Z,22.20
2022-08-11T05:40:26.392Z,22.19
2022-08-11T05:43:32.853Z,22.18
2022-08-11T05:46:25.965Z,22.13
2022-08-11T05:49:12.331Z,22.13
2022-08-11T05:52:05.719Z,22.12
2022-08-11T05:55:05.975Z,22.14
2022-08-11T05:57:49.426Z,22.20
2022-08-11T06:00:20.503Z,22.28
2022-08-11T06:03:01.379Z,22.30
2022-08-11T06:05:43.908Z,22.26
2022-08-11T06:08:15.840Z,22.30
2022-08-11T06:10:45.561Z,22.34
2022-08-11T06:13:17.742Z,22.42
2022-08-11T06:15:52.417Z,22.45
2022-08-11T06:18:21.050Z,22.41
2022-08-11T06:20:55.251Z,22.41
2022-08-11T06:23:32.205Z,22.41
2022-08-11T06:26:01.412Z,22.48
2022-08-11T06:28:36.462Z,22.56
2022-08-11T06:31:25.888Z,22.63
2022-08-11T06:34:12.334Z,22.67
2022-08-11T06:38:04.512Z,22.70
2022-08-11T06:41:22.139Z,22.53
2022-08-11T06:44:16.402Z,22.42
2022-08-11T06:46:53.247Z,22.45
2022-08-11T06:49:50.994Z,22.51
2022-08-11T06:52:34.744Z,22.60
2022-08-11T06:55:58.014Z,22.66
2022-08-11T06:58:51.115Z,22.64
2022-08-11T07:01:49.726Z,22.70
2022-08-11T07:04:44.281Z,22.73
2022-08-11T07:08:32.974Z,22.77
2022-08-11T07:11:47.275Z,22.84
2022-08-11T07:14:43.477Z,22.82
2022-08-11T07:17:17.982Z,22.83
2022-08-11T07:20:18.316Z,22.88
2022-08-11T07:23:17.823Z,22.92
2022-08-11T07:26:11.168Z,23.03
2022-08-11T07:28:56.341Z,23.13
2022-08-11T07:31:50.630Z,23.25
2022-08-11T07:34:38.270Z,23.36
2022-08-11T07:37:16.230Z,23.46
2022-08-11T07:39:46.624Z,23.53
2022-08-11T07:42:19.753Z,23.57
2022-08-11T07:45:09.049Z,23.61
2022-08-11T07:47:56.803Z,23.67
2022-08-11T07:50:43.734Z,23.75
2022-08-11T07:53:13.257Z,23.67
2022-08-11T07:55:50.312Z,23.65
2022-08-11T07:58:45.374Z,23.65
2022-08-11T08:01:44.606Z,23.68
2022-08-11T08:04:34.394Z,23.67
2022-08-11T08:07:23.949Z,23.79
2022-08-11T08:10:14.211Z,23.95
2022-08-11T08:13:03.838Z,24.08
2022-08-11T08:15:50.111Z,24.12
2022-08-11T08:18:26.625Z,24.16
2022-08-11T08:21:12.078Z,24.23
2022-08-11T08:23:46.957Z,24.32
2022-08-11T08:26:34.976Z,24.40
2022-08-11T08:29:24.706Z,24.48
2022-08-11T08:31:53.939Z,24.58
2022-08-11T08:34:22.899Z,24.70
2022-08-11T08:36:52.406Z,24.79
2022-08-11T08:39:22.452Z,24.88
2022-08-11T08:41:55.084Z,24.94
2022-08-11T08:44:41.349Z,25.00
2022-08-11T08:47:42.712Z,25.13
2022-08-11T08:50:16.881Z,25.20
2022-08-11T08:52:58.420Z,25.24
2022-08-11T08:55:29.145Z,25.24
2022-08-11T08:58:00.747Z,25.25
2022-08-11T09:00:42.451Z,25.20
2022-08-11T09:03:38.986Z,25.17
2022-08-11T09:05:59.787Z,25.22
2022-08-11T09:08:30.741Z,25.27
2022-08-11T09:11:17.398Z,25.23
2022-08-11T09:14:04.896Z,25.20
2022-08-11T09:16:37.079Z,25.19
2022-08-11T09:19:05.856Z,25.28
2022-08-11T09:21:49.307Z,25.41
2022-08-11T09:24:37.721Z,25.57
2022-08-11T09:27:07.641Z,25.66
2022-08-11T09:29:38.112Z,25.75
2022-08-11T09:32:07.319Z,25.87
2022-08-11T09:34:37.421Z,25.87
2022-08-11T09:37:53.778Z,25.88
2022-08-11T09:40:31.323Z,25.89
2022-08-11T09:43:23.951Z,25.98
2022-08-11T09:45:56.040Z,26.03
2022-08-11T09:48:26.845Z,26.15
2022-08-11T09:51:01.550Z,26.22
2022-08-11T09:53:40.699Z,26.35
2022-08-11T09:56:40.622Z,26.48
2022-08-11T09:59:09.490Z,26.59
2022-08-11T10:01:49.272Z,26.59
2022-08-11T10:04:28.697Z,26.43
2022-08-11T10:07:04.258Z,26.41
2022-08-11T10:10:01.263Z,26.41
2022-08-11T10:12:42.419Z,26.48
2022-08-11T10:15:30.914Z,26.60
2022-08-11T10:18:26.762Z,26.73
2022-08-11T10:21:09.304Z,26.83
2022-08-11T10:24:01.004Z,26.95
2022-08-11T10:26:53.653Z,27.15
2022-08-11T10:29:54.744Z,27.17
2022-08-11T10:32:59.388Z,27.17
2022-08-11T10:35:30.689Z,27.19
2022-08-11T10:38:07.729Z,27.24
2022-08-11T10:40:45.354Z,27.27
2022-08-11T10:43:18.800Z,27.28
2022-08-11T10:46:29.806Z,27.36
2022-08-11T10:49:00.046Z,27.40
2022-08-11T10:51:50.760Z,27.40
2022-08-11T10:54:41.893Z,27.47
2022-08-11T10:57:28.731Z,27.53
2022-08-11T10:59:57.993Z,27.55
2022-08-11T11:02:27.458Z,27.58
2022-08-11T11:05:10.732Z,27.63
2022-08-11T11:08:00.333Z,27.76
2022-08-11T11:10:28.135Z,27.89
2022-08-11T11:13:17.427Z,27.98
2022-08-11T11:16:26.259Z,28.13
2022-08-11T11:19:01.270Z,28.29
2022-08-11T11:21:29.728Z,28.34
2022-08-11T11:24:18.092Z,28.39
2022-08-11T11:27:06.004Z,28.47
2022-08-11T11:30:04.350Z,28.62
2022-08-11T11:33:14.326Z,28.71
2022-08-11T11:36:03.918Z,28.84
2022-08-11T11:38:31.676Z,28.96
2022-08-11T11:41:18.687Z,29.12
2022-08-11T11:43:46.880Z,29.24
2022-08-11T11:46:15.291Z,29.21
2022-08-11T11:48:43.383Z,29.24
2022-08-11T11:51:14.022Z,29.25
2022-08-11T11:53:47.134Z,29.29
2022-08-11T11:56:15.774Z,29.26
2022-08-11T11:59:02.508Z,29.27
2022-08-11T12:01:34.057Z,29.25
2022-08-11T12:04:06.150Z,29.34
2022-08-11T12:06:34.891Z,29.50
2022-08-11T12:09:06.308Z,29.52
2022-08-11T12:11:52.411Z,29.52
2022-08-11T12:14:22.507Z,29.56
2022-08-11T12:16:50.443Z,29.65
2022-08-11T12:19:35.500Z,29.70
2022-08-11T12:22:23.160Z,29.76
2022-08-11T12:25:09.645Z,29.71
2022-08-11T12:27:39.300Z,29.69
2022-08-11T12:30:09.449Z,29.66
2022-08-11T12:32:40.742Z,29.68
2022-08-11T12:35:09.661Z,29.83
2022-08-11T12:38:03.674Z,30.03
2022-08-11T12:44:05.826Z,30.24
2022-08-11T12:46:37.868Z,30.29
2022-08-11T12:49:33.439Z,30.40
2022-08-11T12:52:15.877Z,30.50
2022-08-11T12:55:35.036Z,30.54
2022-08-11T12:58:17.182Z,30.58
2022-08-11T13:01:04.423Z,30.65
2022-08-11T13:03:56.693Z,30.47
2022-08-11T13:06:25.677Z,30.40
2022-08-11T13:09:00.957Z,30.35
2022-08-11T13:11:56.910Z,30.15
2022-08-11T13:14:29.463Z,30.03
2022-08-11T13:17:16.079Z,30.10
2022-08-11T13:19:49.600Z,30.23
2022-08-11T13:22:20.929Z,30.29
2022-08-11T13:24:50.131Z,30.27
2022-08-11T13:27:20.808Z,30.21
2022-08-11T13:29:50.309Z,30.22
2022-08-11T13:32:22.181Z,30.32
2022-08-11T13:34:49.815Z,30.44
2022-08-11T13:37:20.379Z,30.49
2022-08-11T13:40:10.764Z,30.56
2022-08-11T13:42:39.821Z,30.72
2022-08-11T13:45:08.602Z,30.91
2022-08-11T13:47:39.719Z,31.00
2022-08-11T13:50:12.605Z,31.07
2022-08-11T13:52:42.862Z,31.20
2022-08-11T13:55:45.594Z,31.37
2022-08-11T13:58:19.092Z,31.68
2022-08-11T14:00:52.511Z,32.10
2022-08-11T14:03:27.659Z,32.47
2022-08-11T14:06:19.544Z,32.68
2022-08-11T14:08:48.951Z,33.02
2022-08-11T14:12:23.114Z,33.40
2022-08-11T14:14:27.839Z,33.25
2022-08-11T14:16:57.957Z,32.96
2022-08-11T14:19:28.270Z,32.93
2022-08-11T14:22:08.186Z,33.11
2022-08-11T14:24:42.959Z,33.21
2022-08-11T14:28:30.470Z,33.03
2022-08-11T14:30:01.857Z,32.82
2022-08-11T14:32:29.811Z,32.53
2022-08-11T14:35:00.342Z,32.27
2022-08-11T14:37:29.193Z,32.16
2022-08-11T14:40:02.978Z,32.29
2022-08-11T14:42:50.578Z,32.38
2022-08-11T14:45:57.830Z,32.65
2022-08-11T14:48:26.273Z,33.02
2022-08-11T14:50:54.102Z,33.34
2022-08-11T14:53:23.521Z,33.64
2022-08-11T14:56:10.810Z,33.89
2022-08-11T14:58:42.007Z,34.13
2022-08-11T15:01:30.574Z,34.32
2022-08-11T15:04:31.285Z,34.50
2022-08-11T15:06:48.527Z,34.63
2022-08-11T15:09:16.782Z,34.81
2022-08-11T15:12:03.431Z,34.89
2022-08-11T15:14:50.395Z,34.96
2022-08-11T15:17:24.212Z,34.96
2022-08-11T15:20:29.622Z,35.00
2022-08-11T15:23:16.537Z,35.14
2022-08-11T15:25:51.146Z,35.24
2022-08-11T15:28:38.791Z,35.27
2022-08-11T15:31:25.297Z,35.23
2022-08-11T15:34:18.366Z,35.28
2022-08-11T15:37:07.719Z,35.29
2022-08-11T15:40:23.882Z,35.39
2022-08-11T15:43:29.218Z,35.45
2022-08-11T15:46:02.275Z,35.56
2022-08-11T15:48:33.003Z,35.69
2022-08-11T15:51:28.463Z,35.80
2022-08-11T15:54:00.082Z,35.72
2022-08-11T15:56:31.192Z,35.67
2022-08-11T15:59:41.978Z,35.70
2022-08-11T16:02:33.017Z,35.72
2022-08-11T16:05:07.009Z,35.67
2022-08-11T16:07:41.032Z,35.59
2022-08-11T16:10:21.543Z,35.28
2022-08-11T16:13:06.484Z,34.86
2022-08-11T16:16:04.110Z,34.65
2022-08-11T16:18:42.430Z,34.44
2022-08-11T16:21:35.001Z,34.39
2022-08-11T16:27:01.280Z,34.12
2022-08-11T16:27:12.455Z,33.86
2022-08-11T16:29:47.814Z,33.66
2022-08-11T16:32:25.754Z,33.45
2022-08-11T16:35:21.169Z,33.12
2022-08-11T16:38:10.231Z,32.93
2022-08-11T16:40:40.032Z,32.84
2022-08-11T16:43:31.917Z,32.80
2022-08-11T16:46:18.873Z,32.84
2022-08-11T16:48:49.942Z,32.89
2022-08-11T16:51:20.875Z,32.92
2022-08-11T16:54:05.219Z,32.86
2022-08-11T16:56:45.691Z,32.82
2022-08-11T16:59:26.995Z,32.77
2022-08-11T17:02:08.529Z,32.77
2022-08-11T17:05:34.174Z,32.78
2022-08-11T17:08:26.925Z,32.74
2022-08-11T17:11:20.245Z,32.70
2022-08-11T17:14:01.738Z,32.68
2022-08-11T17:16:39.953Z,32.60
2022-08-11T17:19:12.401Z,32.44
2022-08-11T17:22:06.041Z,32.20
2022-08-11T17:24:43.379Z,31.92
2022-08-11T17:27:16.685Z,31.63
2022-08-11T17:30:01.520Z,31.33
2022-08-11T17:33:03.860Z,30.99
2022-08-11T17:35:41.684Z,30.60
2022-08-11T17:38:23.994Z,30.28
2022-08-11T17:41:23.227Z,29.97
2022-08-11T17:44:13.215Z,29.66
2022-08-11T17:47:05.685Z,29.36
2022-08-11T17:49:38.083Z,29.08
2022-08-11T17:52:33.363Z,28.84
2022-08-11T17:55:52.487Z,28.59
2022-08-11T17:58:28.925Z,28.33
2022-08-11T18:01:03.197Z,28.09
2022-08-11T18:03:41.900Z,27.88
2022-08-11T18:06:32.581Z,27.71
2022-08-11T18:09:26.585Z,27.56
2022-08-11T18:12:15.199Z,27.40
2022-08-11T18:15:06.589Z,27.24
2022-08-11T18:17:55.675Z,27.13
2022-08-11T18:20:42.361Z,27.04
2022-08-11T18:23:46.075Z,26.93
2022-08-11T18:26:39.194Z,26.85
2022-08-11T18:29:27.230Z,26.80
2022-08-11T18:32:21.282Z,26.74
2022-08-11T18:35:11.826Z,26.71
2022-08-11T18:38:05.872Z,26.68
2022-08-11T18:40:55.412Z,26.57
2022-08-11T18:43:45.481Z,26.44
2022-08-11T18:46:35.045Z,26.34
2022-08-11T18:50:02.410Z,26.29
2022-08-11T18:52:49.105Z,26.21
2022-08-11T18:55:37.869Z,26.06
2022-08-11T18:58:29.381Z,25.99
2022-08-11T19:01:19.178Z,25.99
2022-08-11T19:04:11.792Z,25.92
2022-08-11T19:07:08.553Z,25.98
2022-08-11T19:10:00.536Z,25.96
2022-08-11T19:12:57.226Z,25.92
2022-08-11T19:15:44.335Z,25.88
2022-08-11T19:18:38.219Z,25.80
2022-08-11T19:21:26.678Z,25.76
2022-08-11T19:24:16.935Z,25.71
2022-08-11T19:27:03.945Z,25.64
2022-08-11T19:30:06.943Z,25.56
2022-08-11T19:32:59.461Z,25.50
2022-08-11T19:35:47.054Z,25.42
2022-08-11T19:38:34.996Z,25.41
2022-08-11T19:41:56.182Z,25.36
2022-08-11T19:44:29.655Z,25.38
2022-08-11T19:47:17.397Z,25.33
2022-08-11T19:50:05.180Z,25.33
2022-08-11T19:52:52.946Z,25.34
2022-08-11T19:55:40.393Z,25.32
2022-08-11T19:58:27.010Z,25.29
2022-08-11T20:01:13.323Z,25.19
2022-08-11T20:03:59.512Z,25.10
2022-08-11T20:06:47.347Z,25.13
2022-08-11T20:10:04.906Z,25.13
2022-08-11T20:12:45.587Z,25.10
2022-08-11T20:15:33.498Z,25.08
2022-08-11T20:18:20.988Z,25.05
2022-08-11T20:21:24.194Z,25.04
2022-08-11T20:24:18.744Z,25.02
2022-08-11T20:27:06.288Z,24.96
2022-08-11T20:30:07.274Z,24.92
2022-08-11T20:32:54.516Z,24.91
2022-08-11T20:35:42.209Z,24.86
2022-08-11T20:38:30.189Z,24.78
2022-08-11T20:41:17.020Z,24.75
2022-08-11T20:44:09.107Z,24.71
2022-08-11T20:46:58.110Z,24.64
2022-08-11T20:49:53.804Z,24.53
2022-08-11T20:52:48.055Z,24.54
2022-08-11T20:55:51.748Z,24.54
2022-08-11T20:59:13.341Z,24.53
2022-08-11T21:01:51.962Z,24.53
2022-08-11T21:04:54.390Z,24.50
2022-08-11T21:07:55.200Z,24.46
2022-08-11T21:10:51.418Z,24.40
2022-08-11T21:13:42.854Z,24.35
2022-08-11T21:16:42.776Z,24.31
2022-08-11T21:19:59.798Z,24.24
2022-08-11T21:23:24.381Z,24.15
2022-08-11T21:26:20.907Z,24.11
2022-08-11T21:29:08.930Z,24.09
2022-08-11T21:31:55.719Z,24.01
2022-08-11T21:34:43.606Z,23.94
2022-08-11T21:37:31.317Z,23.96
2022-08-11T21:40:18.910Z,23.89
2022-08-11T21:43:08.503Z,23.89
2022-08-11T21:45:57.903Z,23.87
2022-08-11T21:48:46.971Z,23.88
2022-08-11T21:51:33.753Z,23.89
2022-08-11T21:54:21.796Z,23.93
2022-08-11T21:57:11.464Z,23.94
2022-08-11T22:00:20.138Z,23.90
2022-08-11T22:03:10.504Z,23.89
2022-08-11T22:06:00.010Z,23.89
2022-08-11T22:08:48.091Z,23.93
2022-08-11T22:11:35.775Z,23.96
2022-08-11T22:14:24.130Z,24.01
2022-08-11T22:17:10.096Z,23.98
2022-08-11T22:20:00.685Z,23.99
2022-08-11T22:22:51.959Z,23.97
2022-08-11T22:25:53.762Z,23.98
2022-08-11T22:28:46.061Z,23.99
2022-08-11T22:31:33.076Z,24.00
2022-08-11T22:34:20.165Z,23.98
2022-08-11T22:37:07.867Z,23.96
2022-08-11T22:39:59.857Z,23.94
2022-08-11T22:42:50.967Z,23.88
2022-08-11T22:45:38.905Z,23.85
2022-08-11T22:48:27.900Z,23.82
2022-08-11T22:51:16.037Z,23.77
2022-08-11T22:54:03.855Z,23.73
2022-08-11T22:56:51.076Z,23.69
2022-08-11T22:59:39.768Z,23.66
2022-08-11T23:02:26.453Z,23.61
2022-08-11T23:05:13.519Z,23.59
2022-08-11T23:08:00.921Z,23.58
2022-08-11T23:10:48.237Z,23.60
2022-08-11T23:13:34.809Z,23.62
2022-08-11T23:16:21.966Z,23.63
2022-08-11T23:19:08.590Z,23.65
2022-08-11T23:21:55.889Z,23.69
2022-08-11T23:24:44.246Z,23.76
2022-08-11T23:27:32.359Z,23.79
2022-08-11T23:30:20.066Z,23.81
2022-08-11T23:33:15.096Z,23.77
2022-08-11T23:36:07.876Z,23.75
2022-08-11T23:38:55.032Z,23.71
2022-08-11T23:41:41.226Z,23.65
2022-08-11T23:44:28.414Z,23.58
2022-08-11T23:47:20.222Z,23.50
2022-08-11T23:50:07.031Z,23.44
2022-08-11T23:52:54.353Z,23.39
2022-08-11T23:55:40.937Z,23.33
2022-08-11T23:58:27.937Z,23.28
